sensor_id;sensor_type;location;lat;lon;timestamp;temperature;humidity
54684;DHT22;40582;53.100;6.686;2023-04-03T00:00:10;2.40;99.90
54684;DHT22;40582;53.100;6.686;2023-04-03T00:02:36;2.40;99.90
54684;DHT22;40582;53.100;6.686;2023-04-03T00:05:01;2.40;99.90
54684;DHT22;40582;53.100;6.686;2023-04-03T00:07:27;2.30;99.90
54684;DHT22;40582;53.100;6.686;2023-04-03T00:09:53;2.30;99.90
54684;DHT22;40582;53.100;6.686;2023-04-03T00:12:19;2.30;99.90
54684;DHT22;40582;53.100;6.686;2023-04-03T00:14:44;2.50;99.90
54684;DHT22;40582;53.100;6.686;2023-04-03T00:17:10;2.50;99.90
54684;DHT22;40582;53.100;6.686;2023-04-03T00:19:35;2.10;99.90
54684;DHT22;40582;53.100;6.686;2023-04-03T00:22:01;2.10;99.90
54684;DHT22;40582;53.100;6.686;2023-04-03T00:24:27;2.40;99.90
54684;DHT22;40582;53.100;6.686;2023-04-03T00:26:52;2.10;99.90
54684;DHT22;40582;53.100;6.686;2023-04-03T00:29:18;2.10;99.90
54684;DHT22;40582;53.100;6.686;2023-04-03T00:31:44;2.00;99.90
54684;DHT22;40582;53.100;6.686;2023-04-03T00:34:10;2.00;99.90
54684;DHT22;40582;53.100;6.686;2023-04-03T00:36:36;2.00;99.90
54684;DHT22;40582;53.100;6.686;2023-04-03T00:39:02;1.90;99.90
54684;DHT22;40582;53.100;6.686;2023-04-03T00:41:28;1.90;99.90
54684;DHT22;40582;53.100;6.686;2023-04-03T00:43:53;2.20;99.90
54684;DHT22;40582;53.100;6.686;2023-04-03T00:46:19;2.50;99.90
54684;DHT22;40582;53.100;6.686;2023-04-03T00:48:46;1.90;99.90
54684;DHT22;40582;53.100;6.686;2023-04-03T00:51:16;1.80;99.90
54684;DHT22;40582;53.100;6.686;2023-04-03T00:53:47;2.10;99.90
54684;DHT22;40582;53.100;6.686;2023-04-03T00:56:17;1.80;99.90
54684;DHT22;40582;53.100;6.686;2023-04-03T00:58:53;1.90;99.90
54684;DHT22;40582;53.100;6.686;2023-04-03T01:01:26;1.70;99.90
54684;DHT22;40582;53.100;6.686;2023-04-03T01:03:52;2.00;99.90
54684;DHT22;40582;53.100;6.686;2023-04-03T01:06:23;1.70;99.90
54684;DHT22;40582;53.100;6.686;2023-04-03T01:08:50;2.50;99.90
54684;DHT22;40582;53.100;6.686;2023-04-03T01:11:16;2.30;99.90
54684;DHT22;40582;53.100;6.686;2023-04-03T01:13:42;1.70;99.90
54684;DHT22;40582;53.100;6.686;2023-04-03T01:16:08;2.40;99.90
54684;DHT22;40582;53.100;6.686;2023-04-03T01:18:36;1.60;99.90
54684;DHT22;40582;53.100;6.686;2023-04-03T01:23:58;1.60;99.90
54684;DHT22;40582;53.100;6.686;2023-04-03T01:26:25;1.60;99.90
54684;DHT22;40582;53.100;6.686;2023-04-03T01:28:53;1.60;99.90
54684;DHT22;40582;53.100;6.686;2023-04-03T01:31:24;1.50;99.90
54684;DHT22;40582;53.100;6.686;2023-04-03T01:33:51;1.50;99.90
54684;DHT22;40582;53.100;6.686;2023-04-03T01:36:28;1.50;99.90
54684;DHT22;40582;53.100;6.686;2023-04-03T01:38:55;1.70;99.90
54684;DHT22;40582;53.100;6.686;2023-04-03T01:41:22;1.90;99.90
54684;DHT22;40582;53.100;6.686;2023-04-03T01:43:48;1.40;99.90
54684;DHT22;40582;53.100;6.686;2023-04-03T01:46:15;1.50;99.90
54684;DHT22;40582;53.100;6.686;2023-04-03T01:48:41;1.40;99.90
54684;DHT22;40582;53.100;6.686;2023-04-03T01:51:07;1.40;99.90
54684;DHT22;40582;53.100;6.686;2023-04-03T01:53:33;1.30;99.90
54684;DHT22;40582;53.100;6.686;2023-04-03T01:55:59;1.70;99.90
54684;DHT22;40582;53.100;6.686;2023-04-03T01:58:25;2.30;99.90
54684;DHT22;40582;53.100;6.686;2023-04-03T02:00:51;1.30;99.90
54684;DHT22;40582;53.100;6.686;2023-04-03T02:03:17;1.30;99.90
54684;DHT22;40582;53.100;6.686;2023-04-03T02:05:43;1.20;99.90
54684;DHT22;40582;53.100;6.686;2023-04-03T02:08:09;1.40;99.90
54684;DHT22;40582;53.100;6.686;2023-04-03T02:10:35;1.20;99.90
54684;DHT22;40582;53.100;6.686;2023-04-03T02:13:01;1.20;99.90
54684;DHT22;40582;53.100;6.686;2023-04-03T02:15:26;1.20;99.90
54684;DHT22;40582;53.100;6.686;2023-04-03T02:17:52;1.70;99.90
54684;DHT22;40582;53.100;6.686;2023-04-03T02:20:18;1.30;99.90
54684;DHT22;40582;53.100;6.686;2023-04-03T02:22:45;1.20;99.90
54684;DHT22;40582;53.100;6.686;2023-04-03T02:25:11;1.20;99.90
54684;DHT22;40582;53.100;6.686;2023-04-03T02:27:38;1.20;99.90
54684;DHT22;40582;53.100;6.686;2023-04-03T02:30:04;1.80;99.90
54684;DHT22;40582;53.100;6.686;2023-04-03T02:32:30;1.10;99.90
54684;DHT22;40582;53.100;6.686;2023-04-03T02:34:56;2.20;99.90
54684;DHT22;40582;53.100;6.686;2023-04-03T02:37:22;1.00;99.90
54684;DHT22;40582;53.100;6.686;2023-04-03T02:39:48;1.00;99.90
54684;DHT22;40582;53.100;6.686;2023-04-03T02:42:13;1.30;99.90
54684;DHT22;40582;53.100;6.686;2023-04-03T02:44:39;1.10;99.90
54684;DHT22;40582;53.100;6.686;2023-04-03T02:47:05;1.70;99.90
54684;DHT22;40582;53.100;6.686;2023-04-03T02:49:31;0.90;99.90
54684;DHT22;40582;53.100;6.686;2023-04-03T02:51:57;1.60;99.90
54684;DHT22;40582;53.100;6.686;2023-04-03T02:54:23;0.80;99.90
54684;DHT22;40582;53.100;6.686;2023-04-03T02:56:53;0.80;99.90
54684;DHT22;40582;53.100;6.686;2023-04-03T02:59:18;1.00;99.90
54684;DHT22;40582;53.100;6.686;2023-04-03T03:01:44;1.30;99.90
54684;DHT22;40582;53.100;6.686;2023-04-03T03:04:10;0.70;99.90
54684;DHT22;40582;53.100;6.686;2023-04-03T03:06:35;0.70;99.90
54684;DHT22;40582;53.100;6.686;2023-04-03T03:09:01;0.70;99.90
54684;DHT22;40582;53.100;6.686;2023-04-03T03:11:27;0.70;99.90
54684;DHT22;40582;53.100;6.686;2023-04-03T03:13:52;0.70;99.90
54684;DHT22;40582;53.100;6.686;2023-04-03T03:16:18;0.60;99.90
54684;DHT22;40582;53.100;6.686;2023-04-03T03:18:44;0.80;99.90
54684;DHT22;40582;53.100;6.686;2023-04-03T03:21:10;0.60;99.90
54684;DHT22;40582;53.100;6.686;2023-04-03T03:23:36;0.60;99.90
54684;DHT22;40582;53.100;6.686;2023-04-03T03:26:07;0.40;99.90
54684;DHT22;40582;53.100;6.686;2023-04-03T03:28:35;1.30;99.90
54684;DHT22;40582;53.100;6.686;2023-04-03T03:31:01;0.70;99.90
54684;DHT22;40582;53.100;6.686;2023-04-03T03:33:27;0.30;99.90
54684;DHT22;40582;53.100;6.686;2023-04-03T03:35:54;0.60;99.90
54684;DHT22;40582;53.100;6.686;2023-04-03T03:38:20;0.60;99.90
54684;DHT22;40582;53.100;6.686;2023-04-03T03:40:49;0.50;99.90
54684;DHT22;40582;53.100;6.686;2023-04-03T03:43:16;0.80;99.90
54684;DHT22;40582;53.100;6.686;2023-04-03T03:45:42;0.70;99.90
54684;DHT22;40582;53.100;6.686;2023-04-03T03:48:07;0.00;99.90
54684;DHT22;40582;53.100;6.686;2023-04-03T03:50:33;0.70;99.90
54684;DHT22;40582;53.100;6.686;2023-04-03T03:52:59;0.20;99.90
54684;DHT22;40582;53.100;6.686;2023-04-03T03:55:25;0.00;99.90
54684;DHT22;40582;53.100;6.686;2023-04-03T03:57:51;0.00;99.90
54684;DHT22;40582;53.100;6.686;2023-04-03T04:00:17;0.00;99.90
54684;DHT22;40582;53.100;6.686;2023-04-03T04:02:43;0.00;99.90
54684;DHT22;40582;53.100;6.686;2023-04-03T04:05:09;0.00;99.90
54684;DHT22;40582;53.100;6.686;2023-04-03T04:07:35;0.10;99.90
54684;DHT22;40582;53.100;6.686;2023-04-03T04:10:01;0.00;99.90
54684;DHT22;40582;53.100;6.686;2023-04-03T04:12:27;0.00;99.90
54684;DHT22;40582;53.100;6.686;2023-04-03T04:14:52;0.00;99.90
54684;DHT22;40582;53.100;6.686;2023-04-03T04:17:18;0.60;99.90
54684;DHT22;40582;53.100;6.686;2023-04-03T04:19:44;0.00;99.90
54684;DHT22;40582;53.100;6.686;2023-04-03T04:22:10;-0.10;99.90
54684;DHT22;40582;53.100;6.686;2023-04-03T04:24:35;0.40;99.90
54684;DHT22;40582;53.100;6.686;2023-04-03T04:27:01;-0.20;99.90
54684;DHT22;40582;53.100;6.686;2023-04-03T04:29:27;-0.10;99.90
54684;DHT22;40582;53.100;6.686;2023-04-03T04:31:52;-0.20;99.90
54684;DHT22;40582;53.100;6.686;2023-04-03T04:34:18;0.30;99.90
54684;DHT22;40582;53.100;6.686;2023-04-03T04:36:43;-0.20;99.90
54684;DHT22;40582;53.100;6.686;2023-04-03T04:39:09;1.10;99.90
54684;DHT22;40582;53.100;6.686;2023-04-03T04:41:35;0.10;99.90
54684;DHT22;40582;53.100;6.686;2023-04-03T04:44:01;0.30;99.90
54684;DHT22;40582;53.100;6.686;2023-04-03T04:46:27;-0.20;99.90
54684;DHT22;40582;53.100;6.686;2023-04-03T04:48:52;0.70;99.90
54684;DHT22;40582;53.100;6.686;2023-04-03T04:51:18;-0.20;99.90
54684;DHT22;40582;53.100;6.686;2023-04-03T04:53:44;-1.00;99.90
54684;DHT22;40582;53.100;6.686;2023-04-03T04:56:10;0.70;99.90
54684;DHT22;40582;53.100;6.686;2023-04-03T04:58:36;-0.30;99.90
54684;DHT22;40582;53.100;6.686;2023-04-03T05:01:03;-0.30;99.90
54684;DHT22;40582;53.100;6.686;2023-04-03T05:03:29;0.00;99.90
54684;DHT22;40582;53.100;6.686;2023-04-03T05:05:55;-0.30;99.90
54684;DHT22;40582;53.100;6.686;2023-04-03T05:08:21;0.50;99.90
54684;DHT22;40582;53.100;6.686;2023-04-03T05:10:47;-0.30;99.90
54684;DHT22;40582;53.100;6.686;2023-04-03T05:13:13;-0.30;99.90
54684;DHT22;40582;53.100;6.686;2023-04-03T05:15:39;-0.30;99.90
54684;DHT22;40582;53.100;6.686;2023-04-03T05:18:05;-0.30;99.90
54684;DHT22;40582;53.100;6.686;2023-04-03T05:20:32;-0.30;99.90
54684;DHT22;40582;53.100;6.686;2023-04-03T05:22:58;-0.30;99.90
54684;DHT22;40582;53.100;6.686;2023-04-03T05:25:24;-0.20;99.90
54684;DHT22;40582;53.100;6.686;2023-04-03T05:27:50;-0.20;99.90
54684;DHT22;40582;53.100;6.686;2023-04-03T05:30:16;0.10;99.90
54684;DHT22;40582;53.100;6.686;2023-04-03T05:32:42;0.40;99.90
54684;DHT22;40582;53.100;6.686;2023-04-03T05:35:08;1.10;99.90
54684;DHT22;40582;53.100;6.686;2023-04-03T05:37:34;-0.20;99.90
54684;DHT22;40582;53.100;6.686;2023-04-03T05:40:00;0.20;99.90
54684;DHT22;40582;53.100;6.686;2023-04-03T05:42:26;0.90;99.90
54684;DHT22;40582;53.100;6.686;2023-04-03T05:44:51;-0.20;99.90
54684;DHT22;40582;53.100;6.686;2023-04-03T05:47:18;-0.20;99.90
54684;DHT22;40582;53.100;6.686;2023-04-03T05:49:45;-0.10;99.90
54684;DHT22;40582;53.100;6.686;2023-04-03T05:52:30;-0.10;99.90
54684;DHT22;40582;53.100;6.686;2023-04-03T05:54:58;-0.10;99.90
54684;DHT22;40582;53.100;6.686;2023-04-03T05:57:24;-0.10;99.90
54684;DHT22;40582;53.100;6.686;2023-04-03T05:59:49;1.30;99.90
54684;DHT22;40582;53.100;6.686;2023-04-03T06:02:18;0.00;99.90
54684;DHT22;40582;53.100;6.686;2023-04-03T06:04:44;0.00;99.90
54684;DHT22;40582;53.100;6.686;2023-04-03T06:07:15;1.20;99.90
54684;DHT22;40582;53.100;6.686;2023-04-03T06:09:41;0.40;99.90
54684;DHT22;40582;53.100;6.686;2023-04-03T06:12:07;0.20;99.90
54684;DHT22;40582;53.100;6.686;2023-04-03T06:14:33;0.30;99.90
54684;DHT22;40582;53.100;6.686;2023-04-03T06:16:59;0.40;99.90
54684;DHT22;40582;53.100;6.686;2023-04-03T06:19:25;0.50;99.90
54684;DHT22;40582;53.100;6.686;2023-04-03T06:21:51;0.70;99.90
54684;DHT22;40582;53.100;6.686;2023-04-03T06:24:18;1.30;99.90
54684;DHT22;40582;53.100;6.686;2023-04-03T06:26:44;1.00;99.90
54684;DHT22;40582;53.100;6.686;2023-04-03T06:29:09;1.60;99.90
54684;DHT22;40582;53.100;6.686;2023-04-03T06:31:35;1.40;99.90
54684;DHT22;40582;53.100;6.686;2023-04-03T06:34:04;1.50;99.90
54684;DHT22;40582;53.100;6.686;2023-04-03T06:36:31;2.10;99.90
54684;DHT22;40582;53.100;6.686;2023-04-03T06:38:57;2.20;99.90
54684;DHT22;40582;53.100;6.686;2023-04-03T06:41:22;1.90;99.90
54684;DHT22;40582;53.100;6.686;2023-04-03T06:43:48;2.00;99.90
54684;DHT22;40582;53.100;6.686;2023-04-03T06:46:15;2.10;99.90
54684;DHT22;40582;53.100;6.686;2023-04-03T06:48:42;2.30;99.90
54684;DHT22;40582;53.100;6.686;2023-04-03T06:51:26;2.30;99.90
54684;DHT22;40582;53.100;6.686;2023-04-03T06:53:53;2.30;99.90
54684;DHT22;40582;53.100;6.686;2023-04-03T06:56:20;2.50;99.90
54684;DHT22;40582;53.100;6.686;2023-04-03T06:58:46;3.20;99.90
54684;DHT22;40582;53.100;6.686;2023-04-03T07:01:15;2.70;99.90
54684;DHT22;40582;53.100;6.686;2023-04-03T07:03:41;2.70;99.90
54684;DHT22;40582;53.100;6.686;2023-04-03T07:06:08;2.90;99.90
54684;DHT22;40582;53.100;6.686;2023-04-03T07:08:36;2.80;99.90
54684;DHT22;40582;53.100;6.686;2023-04-03T07:11:02;3.50;99.90
54684;DHT22;40582;53.100;6.686;2023-04-03T07:13:27;3.00;99.90
54684;DHT22;40582;53.100;6.686;2023-04-03T07:15:54;3.70;99.90
54684;DHT22;40582;53.100;6.686;2023-04-03T07:18:20;3.20;99.90
54684;DHT22;40582;53.100;6.686;2023-04-03T07:20:47;3.50;99.90
54684;DHT22;40582;53.100;6.686;2023-04-03T07:23:12;4.30;99.90
54684;DHT22;40582;53.100;6.686;2023-04-03T07:25:49;4.20;99.90
54684;DHT22;40582;53.100;6.686;2023-04-03T07:28:16;4.80;99.90
54684;DHT22;40582;53.100;6.686;2023-04-03T07:30:45;5.30;99.90
54684;DHT22;40582;53.100;6.686;2023-04-03T07:33:13;5.80;99.90
54684;DHT22;40582;53.100;6.686;2023-04-03T07:35:40;6.40;99.90
54684;DHT22;40582;53.100;6.686;2023-04-03T07:38:06;7.00;99.90
54684;DHT22;40582;53.100;6.686;2023-04-03T07:40:32;7.70;99.90
54684;DHT22;40582;53.100;6.686;2023-04-03T07:42:58;8.00;99.90
54684;DHT22;40582;53.100;6.686;2023-04-03T07:45:25;8.40;99.90
54684;DHT22;40582;53.100;6.686;2023-04-03T07:47:51;8.80;99.90
54684;DHT22;40582;53.100;6.686;2023-04-03T07:50:18;9.00;99.90
54684;DHT22;40582;53.100;6.686;2023-04-03T07:52:44;9.10;99.90
54684;DHT22;40582;53.100;6.686;2023-04-03T07:55:11;9.00;99.90
54684;DHT22;40582;53.100;6.686;2023-04-03T07:57:37;9.00;99.90
54684;DHT22;40582;53.100;6.686;2023-04-03T08:00:04;9.10;99.90
54684;DHT22;40582;53.100;6.686;2023-04-03T08:02:30;8.80;99.90
54684;DHT22;40582;53.100;6.686;2023-04-03T08:04:58;8.80;99.90
54684;DHT22;40582;53.100;6.686;2023-04-03T08:07:23;8.90;99.90
54684;DHT22;40582;53.100;6.686;2023-04-03T08:09:49;9.00;99.90
54684;DHT22;40582;53.100;6.686;2023-04-03T08:12:16;9.20;99.90
54684;DHT22;40582;53.100;6.686;2023-04-03T08:14:42;9.20;99.90
54684;DHT22;40582;53.100;6.686;2023-04-03T08:17:08;8.80;99.90
54684;DHT22;40582;53.100;6.686;2023-04-03T08:19:37;8.70;99.90
54684;DHT22;40582;53.100;6.686;2023-04-03T08:22:03;8.80;99.90
54684;DHT22;40582;53.100;6.686;2023-04-03T08:24:30;9.00;99.90
54684;DHT22;40582;53.100;6.686;2023-04-03T08:26:56;8.90;99.90
54684;DHT22;40582;53.100;6.686;2023-04-03T08:29:23;8.80;99.90
54684;DHT22;40582;53.100;6.686;2023-04-03T08:31:49;8.70;99.90
54684;DHT22;40582;53.100;6.686;2023-04-03T08:34:16;8.60;98.80
54684;DHT22;40582;53.100;6.686;2023-04-03T08:36:42;8.20;99.40
54684;DHT22;40582;53.100;6.686;2023-04-03T08:39:08;8.20;99.80
54684;DHT22;40582;53.100;6.686;2023-04-03T08:41:39;8.30;99.90
54684;DHT22;40582;53.100;6.686;2023-04-03T08:44:25;8.40;99.80
54684;DHT22;40582;53.100;6.686;2023-04-03T08:50:36;8.20;97.50
54684;DHT22;40582;53.100;6.686;2023-04-03T08:54:57;8.10;99.50
54684;DHT22;40582;53.100;6.686;2023-04-03T08:57:36;8.30;99.10
54684;DHT22;40582;53.100;6.686;2023-04-03T09:00:10;8.30;98.60
54684;DHT22;40582;53.100;6.686;2023-04-03T09:02:49;8.30;98.30
54684;DHT22;40582;53.100;6.686;2023-04-03T09:05:43;8.40;98.10
54684;DHT22;40582;53.100;6.686;2023-04-03T09:08:24;8.40;97.30
54684;DHT22;40582;53.100;6.686;2023-04-03T09:14:08;8.50;96.80
54684;DHT22;40582;53.100;6.686;2023-04-03T09:16:49;8.60;96.60
54684;DHT22;40582;53.100;6.686;2023-04-03T09:22:28;8.70;95.40
54684;DHT22;40582;53.100;6.686;2023-04-03T09:25:18;8.80;96.20
54684;DHT22;40582;53.100;6.686;2023-04-03T09:27:45;8.80;95.00
54684;DHT22;40582;53.100;6.686;2023-04-03T09:30:16;8.60;94.70
54684;DHT22;40582;53.100;6.686;2023-04-03T09:32:45;8.60;94.40
54684;DHT22;40582;53.100;6.686;2023-04-03T09:35:25;8.50;94.40
54684;DHT22;40582;53.100;6.686;2023-04-03T09:37:53;8.60;93.60
54684;DHT22;40582;53.100;6.686;2023-04-03T09:42:53;8.50;93.80
54684;DHT22;40582;53.100;6.686;2023-04-03T09:45:37;8.70;94.70
54684;DHT22;40582;53.100;6.686;2023-04-03T09:48:14;8.80;93.10
54684;DHT22;40582;53.100;6.686;2023-04-03T09:51:01;8.70;93.70
54684;DHT22;40582;53.100;6.686;2023-04-03T09:53:42;8.80;92.50
54684;DHT22;40582;53.100;6.686;2023-04-03T09:58:51;9.00;91.60
54684;DHT22;40582;53.100;6.686;2023-04-03T10:03:46;9.30;91.60
54684;DHT22;40582;53.100;6.686;2023-04-03T10:06:32;9.30;91.60
54684;DHT22;40582;53.100;6.686;2023-04-03T10:09:06;9.30;90.40
54684;DHT22;40582;53.100;6.686;2023-04-03T10:11:31;9.40;91.00
54684;DHT22;40582;53.100;6.686;2023-04-03T10:14:02;9.20;88.70
54684;DHT22;40582;53.100;6.686;2023-04-03T10:19:14;8.90;87.80
54684;DHT22;40582;53.100;6.686;2023-04-03T10:24:28;9.00;88.80
54684;DHT22;40582;53.100;6.686;2023-04-03T10:27:04;8.90;84.50
54684;DHT22;40582;53.100;6.686;2023-04-03T10:35:33;9.00;79.50
54684;DHT22;40582;53.100;6.686;2023-04-03T10:41:05;9.00;81.80
54684;DHT22;40582;53.100;6.686;2023-04-03T10:43:50;9.00;81.20
54684;DHT22;40582;53.100;6.686;2023-04-03T10:49:14;9.00;79.00
54684;DHT22;40582;53.100;6.686;2023-04-03T10:52:10;9.00;80.00
54684;DHT22;40582;53.100;6.686;2023-04-03T10:54:46;9.30;80.60
54684;DHT22;40582;53.100;6.686;2023-04-03T10:57:15;9.50;82.00
54684;DHT22;40582;53.100;6.686;2023-04-03T11:02:38;9.50;78.90
54684;DHT22;40582;53.100;6.686;2023-04-03T11:05:19;9.40;76.60
54684;DHT22;40582;53.100;6.686;2023-04-03T11:07:50;9.60;75.60
54684;DHT22;40582;53.100;6.686;2023-04-03T11:10:23;9.60;77.90
54684;DHT22;40582;53.100;6.686;2023-04-03T11:15:53;9.40;75.60
54684;DHT22;40582;53.100;6.686;2023-04-03T11:18:27;9.60;75.80
54684;DHT22;40582;53.100;6.686;2023-04-03T11:23:39;9.50;71.30
54684;DHT22;40582;53.100;6.686;2023-04-03T11:26:12;9.60;74.10
54684;DHT22;40582;53.100;6.686;2023-04-03T11:28:38;9.80;74.00
54684;DHT22;40582;53.100;6.686;2023-04-03T11:36:22;9.90;74.20
54684;DHT22;40582;53.100;6.686;2023-04-03T11:38:55;10.00;74.10
54684;DHT22;40582;53.100;6.686;2023-04-03T11:41:30;10.20;73.90
54684;DHT22;40582;53.100;6.686;2023-04-03T11:44:05;10.40;73.00
54684;DHT22;40582;53.100;6.686;2023-04-03T11:46:50;10.30;72.80
54684;DHT22;40582;53.100;6.686;2023-04-03T11:49:51;10.30;71.80
54684;DHT22;40582;53.100;6.686;2023-04-03T12:16:28;10.40;73.30
54684;DHT22;40582;53.100;6.686;2023-04-03T12:34:48;10.20;69.80
54684;DHT22;40582;53.100;6.686;2023-04-03T12:45:19;10.10;70.20
54684;DHT22;40582;53.100;6.686;2023-04-03T12:47:48;10.20;69.30
54684;DHT22;40582;53.100;6.686;2023-04-03T12:50:32;10.20;70.20
54684;DHT22;40582;53.100;6.686;2023-04-03T12:55:57;10.30;68.60
54684;DHT22;40582;53.100;6.686;2023-04-03T12:58:42;10.40;70.70
54684;DHT22;40582;53.100;6.686;2023-04-03T13:01:21;10.40;70.40
54684;DHT22;40582;53.100;6.686;2023-04-03T13:03:54;10.30;69.80
54684;DHT22;40582;53.100;6.686;2023-04-03T13:06:27;10.30;70.90
54684;DHT22;40582;53.100;6.686;2023-04-03T13:08:58;10.30;69.90
54684;DHT22;40582;53.100;6.686;2023-04-03T13:11:34;10.30;70.90
54684;DHT22;40582;53.100;6.686;2023-04-03T13:14:04;10.40;70.30
54684;DHT22;40582;53.100;6.686;2023-04-03T13:16:31;10.50;71.30
54684;DHT22;40582;53.100;6.686;2023-04-03T13:18:58;10.50;69.90
54684;DHT22;40582;53.100;6.686;2023-04-03T13:21:27;10.40;69.40
54684;DHT22;40582;53.100;6.686;2023-04-03T13:23:57;10.30;71.20
54684;DHT22;40582;53.100;6.686;2023-04-03T13:26:25;10.30;71.90
54684;DHT22;40582;53.100;6.686;2023-04-03T13:28:54;10.40;71.60
54684;DHT22;40582;53.100;6.686;2023-04-03T13:31:33;10.40;71.80
54684;DHT22;40582;53.100;6.686;2023-04-03T13:34:11;10.50;70.20
54684;DHT22;40582;53.100;6.686;2023-04-03T13:36:55;10.40;70.10
54684;DHT22;40582;53.100;6.686;2023-04-03T13:39:28;10.40;71.40
54684;DHT22;40582;53.100;6.686;2023-04-03T13:41:57;10.40;71.20
54684;DHT22;40582;53.100;6.686;2023-04-03T13:46:50;10.30;70.80
54684;DHT22;40582;53.100;6.686;2023-04-03T13:49:21;10.40;70.90
54684;DHT22;40582;53.100;6.686;2023-04-03T13:51:48;10.30;71.40
54684;DHT22;40582;53.100;6.686;2023-04-03T13:54:21;10.40;71.60
54684;DHT22;40582;53.100;6.686;2023-04-03T13:56:54;10.40;69.80
54684;DHT22;40582;53.100;6.686;2023-04-03T13:59:33;10.40;69.80
54684;DHT22;40582;53.100;6.686;2023-04-03T14:04:31;10.40;69.60
54684;DHT22;40582;53.100;6.686;2023-04-03T14:06:58;10.30;69.60
54684;DHT22;40582;53.100;6.686;2023-04-03T14:09:26;10.30;70.30
54684;DHT22;40582;53.100;6.686;2023-04-03T14:11:55;10.30;70.30
54684;DHT22;40582;53.100;6.686;2023-04-03T14:14:27;10.30;69.90
54684;DHT22;40582;53.100;6.686;2023-04-03T14:16:58;10.40;70.00
54684;DHT22;40582;53.100;6.686;2023-04-03T14:19:29;10.30;70.70
54684;DHT22;40582;53.100;6.686;2023-04-03T14:21:56;10.40;70.90
54684;DHT22;40582;53.100;6.686;2023-04-03T14:24:22;10.40;70.90
54684;DHT22;40582;53.100;6.686;2023-04-03T14:26:51;10.30;71.00
54684;DHT22;40582;53.100;6.686;2023-04-03T14:29:18;10.20;69.40
54684;DHT22;40582;53.100;6.686;2023-04-03T14:31:44;10.20;70.70
54684;DHT22;40582;53.100;6.686;2023-04-03T14:34:11;10.20;71.00
54684;DHT22;40582;53.100;6.686;2023-04-03T14:36:38;10.20;72.10
54684;DHT22;40582;53.100;6.686;2023-04-03T14:39:04;10.20;72.50
54684;DHT22;40582;53.100;6.686;2023-04-03T14:41:30;10.20;71.80
54684;DHT22;40582;53.100;6.686;2023-04-03T14:43:56;10.20;71.10
54684;DHT22;40582;53.100;6.686;2023-04-03T14:46:29;10.00;70.50
54684;DHT22;40582;53.100;6.686;2023-04-03T14:48:55;10.00;71.30
54684;DHT22;40582;53.100;6.686;2023-04-03T14:51:21;10.00;71.00
54684;DHT22;40582;53.100;6.686;2023-04-03T14:53:48;10.10;72.60
54684;DHT22;40582;53.100;6.686;2023-04-03T14:56:18;10.00;70.90
54684;DHT22;40582;53.100;6.686;2023-04-03T14:58:44;10.00;70.60
54684;DHT22;40582;53.100;6.686;2023-04-03T15:01:14;10.00;70.30
54684;DHT22;40582;53.100;6.686;2023-04-03T15:03:40;9.90;70.20
54684;DHT22;40582;53.100;6.686;2023-04-03T15:06:06;9.90;70.50
54684;DHT22;40582;53.100;6.686;2023-04-03T15:08:31;9.90;71.20
54684;DHT22;40582;53.100;6.686;2023-04-03T15:10:58;10.00;72.20
54684;DHT22;40582;53.100;6.686;2023-04-03T15:13:24;9.90;70.70
54684;DHT22;40582;53.100;6.686;2023-04-03T15:15:51;9.80;70.60
54684;DHT22;40582;53.100;6.686;2023-04-03T15:18:20;9.80;72.00
54684;DHT22;40582;53.100;6.686;2023-04-03T15:20:48;9.80;72.90
54684;DHT22;40582;53.100;6.686;2023-04-03T15:23:15;9.70;72.30
54684;DHT22;40582;53.100;6.686;2023-04-03T15:25:46;9.70;72.50
54684;DHT22;40582;53.100;6.686;2023-04-03T15:28:27;9.70;72.50
54684;DHT22;40582;53.100;6.686;2023-04-03T15:30:54;9.70;72.60
54684;DHT22;40582;53.100;6.686;2023-04-03T15:33:20;9.60;71.80
54684;DHT22;40582;53.100;6.686;2023-04-03T15:35:46;9.50;71.50
54684;DHT22;40582;53.100;6.686;2023-04-03T15:38:11;9.40;72.00
54684;DHT22;40582;53.100;6.686;2023-04-03T15:40:38;9.40;73.50
54684;DHT22;40582;53.100;6.686;2023-04-03T15:43:05;9.40;73.50
54684;DHT22;40582;53.100;6.686;2023-04-03T15:45:32;9.40;73.00
54684;DHT22;40582;53.100;6.686;2023-04-03T15:47:59;9.40;74.20
54684;DHT22;40582;53.100;6.686;2023-04-03T15:50:25;9.30;74.40
54684;DHT22;40582;53.100;6.686;2023-04-03T15:52:51;9.30;73.80
54684;DHT22;40582;53.100;6.686;2023-04-03T15:55:27;9.30;73.30
54684;DHT22;40582;53.100;6.686;2023-04-03T15:57:53;9.10;72.00
54684;DHT22;40582;53.100;6.686;2023-04-03T16:00:20;9.10;73.60
54684;DHT22;40582;53.100;6.686;2023-04-03T16:02:47;9.00;73.20
54684;DHT22;40582;53.100;6.686;2023-04-03T16:05:15;8.90;73.60
54684;DHT22;40582;53.100;6.686;2023-04-03T16:07:42;8.90;74.30
54684;DHT22;40582;53.100;6.686;2023-04-03T16:10:09;8.80;73.50
54684;DHT22;40582;53.100;6.686;2023-04-03T16:12:36;8.80;73.60
54684;DHT22;40582;53.100;6.686;2023-04-03T16:15:03;8.80;73.70
54684;DHT22;40582;53.100;6.686;2023-04-03T16:17:29;8.70;74.00
54684;DHT22;40582;53.100;6.686;2023-04-03T16:19:55;8.70;74.00
54684;DHT22;40582;53.100;6.686;2023-04-03T16:22:23;8.60;73.70
54684;DHT22;40582;53.100;6.686;2023-04-03T16:24:50;8.60;73.50
54684;DHT22;40582;53.100;6.686;2023-04-03T16:27:16;8.50;74.10
54684;DHT22;40582;53.100;6.686;2023-04-03T16:29:42;8.50;74.20
54684;DHT22;40582;53.100;6.686;2023-04-03T16:32:08;8.40;74.00
54684;DHT22;40582;53.100;6.686;2023-04-03T16:34:34;8.30;73.60
54684;DHT22;40582;53.100;6.686;2023-04-03T16:37:00;8.30;73.50
54684;DHT22;40582;53.100;6.686;2023-04-03T16:39:26;8.20;74.20
54684;DHT22;40582;53.100;6.686;2023-04-03T16:41:52;8.20;74.80
54684;DHT22;40582;53.100;6.686;2023-04-03T16:44:17;8.10;74.60
54684;DHT22;40582;53.100;6.686;2023-04-03T16:46:44;8.10;75.10
54684;DHT22;40582;53.100;6.686;2023-04-03T16:49:10;8.00;75.40
54684;DHT22;40582;53.100;6.686;2023-04-03T16:51:35;8.00;75.60
54684;DHT22;40582;53.100;6.686;2023-04-03T16:54:01;7.90;76.00
54684;DHT22;40582;53.100;6.686;2023-04-03T16:56:27;7.90;75.20
54684;DHT22;40582;53.100;6.686;2023-04-03T16:58:53;7.80;75.30
54684;DHT22;40582;53.100;6.686;2023-04-03T17:01:21;7.80;75.30
54684;DHT22;40582;53.100;6.686;2023-04-03T17:03:47;7.70;76.00
54684;DHT22;40582;53.100;6.686;2023-04-03T17:06:18;7.60;76.70
54684;DHT22;40582;53.100;6.686;2023-04-03T17:08:45;7.60;76.90
54684;DHT22;40582;53.100;6.686;2023-04-03T17:11:11;7.60;77.40
54684;DHT22;40582;53.100;6.686;2023-04-03T17:13:37;7.50;78.00
54684;DHT22;40582;53.100;6.686;2023-04-03T17:16:04;7.40;78.30
54684;DHT22;40582;53.100;6.686;2023-04-03T17:18:32;7.40;77.90
54684;DHT22;40582;53.100;6.686;2023-04-03T17:20:59;7.30;77.50
54684;DHT22;40582;53.100;6.686;2023-04-03T17:23:25;7.30;78.00
54684;DHT22;40582;53.100;6.686;2023-04-03T17:25:52;7.20;78.30
54684;DHT22;40582;53.100;6.686;2023-04-03T17:28:20;7.10;79.50
54684;DHT22;40582;53.100;6.686;2023-04-03T17:30:47;7.00;80.40
54684;DHT22;40582;53.100;6.686;2023-04-03T17:33:13;6.90;81.10
54684;DHT22;40582;53.100;6.686;2023-04-03T17:35:39;6.90;80.80
54684;DHT22;40582;53.100;6.686;2023-04-03T17:38:04;6.80;80.80